createdAt,value
2022-09-04T00:01:53.106Z,22.45
2022-09-04T00:04:20.434Z,21.58
2022-09-04T00:07:06.737Z,22.15
2022-09-04T00:09:46.368Z,23.05
2022-09-04T00:12:13.938Z,25.80
2022-09-04T00:14:41.351Z,26.13
2022-09-04T00:17:28.831Z,26.75
2022-09-04T00:19:59.606Z,27.83
2022-09-04T00:22:39.646Z,26.15
2022-09-04T00:25:13.413Z,23.05
2022-09-04T00:27:45.167Z,24.08
2022-09-04T00:30:17.243Z,23.67
2022-09-04T00:33:03.161Z,20.77
2022-09-04T00:35:32.067Z,19.50
2022-09-04T00:38:04.974Z,19.65
2022-09-04T00:40:32.337Z,19.25
2022-09-04T00:43:11.614Z,17.95
2022-09-04T00:45:59.253Z,18.67
2022-09-04T00:48:45.250Z,18.23
2022-09-04T00:51:18.495Z,17.17
2022-09-04T00:53:46.038Z,18.13
2022-09-04T00:56:15.471Z,17.85
2022-09-04T00:58:51.270Z,17.42
2022-09-04T01:01:26.370Z,18.23
2022-09-04T01:04:01.761Z,17.23
2022-09-04T01:06:29.751Z,16.77
2022-09-04T01:09:04.099Z,14.90
2022-09-04T01:11:38.326Z,14.75
2022-09-04T01:14:21.053Z,14.13
2022-09-04T01:16:58.148Z,12.43
2022-09-04T01:19:40.684Z,11.60
2022-09-04T01:22:07.893Z,11.57
2022-09-04T01:24:41.818Z,11.25
2022-09-04T01:27:10.509Z,12.05
2022-09-04T01:29:57.273Z,11.20
2022-09-04T01:32:27.371Z,10.45
2022-09-04T01:34:59.623Z,10.30
2022-09-04T01:37:36.405Z,12.43
2022-09-04T01:40:22.921Z,12.07
2022-09-04T01:43:18.633Z,11.93
2022-09-04T01:46:01.088Z,13.15
2022-09-04T01:48:47.000Z,12.60
2022-09-04T01:51:23.488Z,13.05
2022-09-04T01:54:14.010Z,13.32
2022-09-04T01:56:45.945Z,14.35
2022-09-04T01:59:25.558Z,13.32
2022-09-04T02:02:01.845Z,13.55
2022-09-04T02:04:32.056Z,13.25
2022-09-04T02:07:11.338Z,13.30
2022-09-04T02:09:56.177Z,14.23
2022-09-04T02:12:36.021Z,14.55
2022-09-04T02:15:06.626Z,13.63
2022-09-04T02:17:46.025Z,13.48
2022-09-04T02:20:20.202Z,14.30
2022-09-04T02:22:56.776Z,13.38
2022-09-04T02:25:36.903Z,14.02
2022-09-04T02:28:22.859Z,14.73
2022-09-04T02:30:54.351Z,13.48
2022-09-04T02:33:38.225Z,15.32
2022-09-04T02:36:27.210Z,14.10
2022-09-04T02:39:09.891Z,15.25
2022-09-04T02:44:23.050Z,13.63
2022-09-04T02:46:56.598Z,12.98
2022-09-04T02:49:48.452Z,12.82
2022-09-04T02:52:33.456Z,11.70
2022-09-04T02:55:19.600Z,11.68
2022-09-04T02:57:55.079Z,11.20
2022-09-04T03:00:25.482Z,11.50
2022-09-04T03:03:11.626Z,11.50
2022-09-04T03:05:42.174Z,11.13
2022-09-04T03:08:12.157Z,10.68
2022-09-04T03:10:44.850Z,9.73
2022-09-04T03:13:28.726Z,8.95
2022-09-04T03:15:58.731Z,10.20
2022-09-04T03:18:37.994Z,9.15
2022-09-04T03:21:17.244Z,11.52
2022-09-04T03:23:47.523Z,9.77
2022-09-04T03:26:33.117Z,9.30
2022-09-04T03:29:15.655Z,8.30
2022-09-04T03:32:15.617Z,8.20
2022-09-04T03:35:02.673Z,6.45
2022-09-04T03:37:38.988Z,6.60
2022-09-04T03:40:06.188Z,6.55
2022-09-04T03:42:36.168Z,6.32
2022-09-04T03:45:06.444Z,5.88
2022-09-04T03:47:52.519Z,6.38
2022-09-04T03:50:49.010Z,5.88
2022-09-04T03:53:30.341Z,5.70
2022-09-04T03:56:06.890Z,5.32
2022-09-04T03:58:39.255Z,6.43
2022-09-04T04:01:24.201Z,6.82
2022-09-04T04:03:55.228Z,5.90
2022-09-04T04:06:41.102Z,6.10
2022-09-04T04:09:23.298Z,6.47
2022-09-04T04:12:10.621Z,5.72
2022-09-04T04:14:38.342Z,6.35
2022-09-04T04:17:38.338Z,6.13
2022-09-04T04:20:22.110Z,6.10
2022-09-04T04:23:08.317Z,5.85
2022-09-04T04:25:52.591Z,4.72
2022-09-04T04:28:29.039Z,4.57
2022-09-04T04:31:00.435Z,3.60
2022-09-04T04:33:42.826Z,3.50
2022-09-04T04:36:17.569Z,3.45
2022-09-04T04:38:47.545Z,3.17
2022-09-04T04:41:21.516Z,3.15
2022-09-04T04:43:48.733Z,2.50
2022-09-04T04:46:36.844Z,2.38
2022-09-04T04:49:19.542Z,2.47
2022-09-04T04:52:15.826Z,2.50
2022-09-04T04:54:52.531Z,1.48
2022-09-04T04:57:31.968Z,1.40
2022-09-04T05:00:22.846Z,1.60
2022-09-04T05:03:24.161Z,1.40
2022-09-04T05:05:53.108Z,1.35
2022-09-04T05:08:26.366Z,1.67
2022-09-04T05:11:01.195Z,1.58
2022-09-04T05:13:28.432Z,1.42
2022-09-04T05:16:09.234Z,1.63
2022-09-04T05:18:50.694Z,1.20
2022-09-04T05:21:23.201Z,1.20
2022-09-04T05:24:10.397Z,1.35
2022-09-04T05:26:42.269Z,1.23
2022-09-04T05:29:18.462Z,1.33
2022-09-04T05:31:53.117Z,1.50
2022-09-04T05:34:20.668Z,1.00
2022-09-04T05:37:03.017Z,1.30
2022-09-04T05:42:07.368Z,1.38
2022-09-04T05:44:34.720Z,1.20
2022-09-04T05:47:21.041Z,1.50
2022-09-04T05:50:00.390Z,1.23
2022-09-04T05:52:30.469Z,1.20
2022-09-04T05:55:21.373Z,1.10
2022-09-04T05:58:07.124Z,1.17
2022-09-04T06:00:45.857Z,1.33
2022-09-04T06:03:13.189Z,0.90
2022-09-04T06:06:03.164Z,1.00
2022-09-04T06:08:45.601Z,1.00
2022-09-04T06:11:36.493Z,0.90
2022-09-04T06:14:22.268Z,1.05
2022-09-04T06:16:55.716Z,1.10
2022-09-04T06:19:28.601Z,1.05
2022-09-04T06:21:55.781Z,1.10
2022-09-04T06:24:26.085Z,0.93
2022-09-04T06:27:05.498Z,0.95
2022-09-04T06:29:32.775Z,0.90
2022-09-04T06:32:04.403Z,0.80
2022-09-04T06:34:34.457Z,0.80
2022-09-04T06:37:25.863Z,0.70
2022-09-04T06:40:05.395Z,0.80
2022-09-04T06:42:52.932Z,0.90
2022-09-04T06:45:42.191Z,0.70
2022-09-04T06:48:14.092Z,0.82
2022-09-04T06:50:54.129Z,0.88
2022-09-04T06:53:26.970Z,1.10
2022-09-04T06:55:54.906Z,0.85
2022-09-04T06:58:45.452Z,0.80
2022-09-04T07:01:16.322Z,1.33
2022-09-04T07:03:46.727Z,0.75
2022-09-04T07:06:20.731Z,0.80
2022-09-04T07:09:06.762Z,0.70
2022-09-04T07:11:36.711Z,0.80
2022-09-04T07:14:16.509Z,1.13
2022-09-04T07:16:49.689Z,0.98
2022-09-04T07:19:33.058Z,0.85
2022-09-04T07:22:00.592Z,1.42
2022-09-04T07:24:46.236Z,1.20
2022-09-04T07:27:25.284Z,1.10
2022-09-04T07:29:59.887Z,0.70
2022-09-04T07:32:34.891Z,0.80
2022-09-04T07:35:11.151Z,0.70
2022-09-04T07:37:50.123Z,1.10
2022-09-04T07:40:19.393Z,1.00
2022-09-04T07:42:58.912Z,0.82
2022-09-04T07:45:32.399Z,1.00
2022-09-04T07:48:09.187Z,1.08
2022-09-04T07:50:40.096Z,1.15
2022-09-04T07:53:16.263Z,1.00
2022-09-04T07:55:48.044Z,0.75
2022-09-04T07:58:34.184Z,0.80
2022-09-04T08:01:09.905Z,0.90
2022-09-04T08:03:42.603Z,0.70
2022-09-04T08:06:28.745Z,0.80
2022-09-04T08:09:05.522Z,0.85
2022-09-04T08:11:38.256Z,1.08
2022-09-04T08:14:09.797Z,0.80
2022-09-04T08:16:43.204Z,1.20
2022-09-04T08:19:29.146Z,0.95
2022-09-04T08:21:57.174Z,0.90
2022-09-04T08:24:24.533Z,0.73
2022-09-04T08:27:01.157Z,0.90
2022-09-04T08:29:43.708Z,0.90
2022-09-04T08:32:28.578Z,0.93
2022-09-04T08:35:11.501Z,0.80
2022-09-04T08:37:54.224Z,0.90
2022-09-04T08:43:07.590Z,1.10
2022-09-04T08:46:04.172Z,1.00
2022-09-04T08:48:50.013Z,0.75
2022-09-04T08:51:33.782Z,1.00
2022-09-04T08:54:19.524Z,0.82
2022-09-04T08:57:14.432Z,0.70
2022-09-04T09:00:00.234Z,0.82
2022-09-04T09:02:39.491Z,1.00
2022-09-04T09:05:12.752Z,0.88
2022-09-04T09:07:39.945Z,0.60
2022-09-04T09:10:26.077Z,1.00
2022-09-04T09:13:02.331Z,0.90
2022-09-04T09:15:33.319Z,0.90
2022-09-04T09:18:19.507Z,1.10
2022-09-04T09:21:05.249Z,0.80
2022-09-04T09:23:32.576Z,0.77
2022-09-04T09:26:08.685Z,1.00
2022-09-04T09:28:35.988Z,0.93
2022-09-04T09:31:22.196Z,0.70
2022-09-04T09:33:58.443Z,0.90
2022-09-04T09:36:35.514Z,0.90
2022-09-04T09:39:05.789Z,1.17
2022-09-04T09:41:39.204Z,0.90
2022-09-04T09:44:09.440Z,0.98
2022-09-04T09:46:55.606Z,0.95
2022-09-04T09:49:28.734Z,0.77
2022-09-04T09:51:58.762Z,0.77
2022-09-04T09:54:37.891Z,0.90
2022-09-04T09:57:05.084Z,0.85
2022-09-04T09:59:36.433Z,1.10
2022-09-04T10:02:22.607Z,0.90
2022-09-04T10:04:53.064Z,0.90
2022-09-04T10:07:38.979Z,1.05
2022-09-04T10:10:22.348Z,1.20
2022-09-04T10:12:50.192Z,1.02
2022-09-04T10:15:23.585Z,1.25
2022-09-04T10:18:05.971Z,1.45
2022-09-04T10:20:33.410Z,1.10
2022-09-04T10:23:15.569Z,1.15
2022-09-04T10:25:51.679Z,1.25
2022-09-04T10:28:38.773Z,1.30
2022-09-04T10:31:14.929Z,1.30
2022-09-04T10:33:58.048Z,1.10
2022-09-04T10:36:40.757Z,1.25
2022-09-04T10:39:38.914Z,1.23
2022-09-04T10:42:19.899Z,1.33
2022-09-04T10:45:06.123Z,1.05
2022-09-04T10:47:52.295Z,1.08
2022-09-04T10:50:31.790Z,1.10
2022-09-04T10:53:21.177Z,1.02
2022-09-04T10:55:52.321Z,1.00
2022-09-04T10:58:39.973Z,0.93
2022-09-04T11:01:13.668Z,0.95
2022-09-04T11:03:58.985Z,1.17
2022-09-04T11:06:47.442Z,1.10
2022-09-04T11:09:33.558Z,1.33
2022-09-04T11:12:07.326Z,1.10
2022-09-04T11:14:44.219Z,0.90
2022-09-04T11:17:14.284Z,1.05
2022-09-04T11:19:54.700Z,1.00
2022-09-04T11:22:41.147Z,1.10
2022-09-04T11:25:20.752Z,1.10
2022-09-04T11:27:49.247Z,1.10
2022-09-04T11:30:21.157Z,1.13
2022-09-04T11:32:52.845Z,1.02
2022-09-04T11:35:42.262Z,1.00
2022-09-04T11:38:19.017Z,1.00
2022-09-04T11:40:46.285Z,1.13
2022-09-04T11:43:34.353Z,1.13
2022-09-04T11:46:23.449Z,1.30
2022-09-04T11:49:00.510Z,1.20
2022-09-04T11:51:40.079Z,1.20
2022-09-04T11:54:10.619Z,1.30
2022-09-04T11:56:48.732Z,1.73
2022-09-04T11:59:28.087Z,1.30
2022-09-04T12:01:58.385Z,1.08
2022-09-04T12:04:25.790Z,1.38
2022-09-04T12:06:53.074Z,1.10
2022-09-04T12:09:26.418Z,1.20
2022-09-04T12:11:54.968Z,1.10
2022-09-04T12:14:40.692Z,1.10
2022-09-04T12:17:15.580Z,1.10
2022-09-04T12:19:42.833Z,1.27
2022-09-04T12:22:36.403Z,1.00
2022-09-04T12:25:06.516Z,1.13
2022-09-04T12:27:49.317Z,1.02
2022-09-04T12:30:23.740Z,0.90
2022-09-04T12:32:53.752Z,1.30
2022-09-04T12:35:20.977Z,1.00
2022-09-04T12:37:54.527Z,1.35
2022-09-04T12:40:22.082Z,1.13
2022-09-04T12:42:49.369Z,1.00
2022-09-04T12:45:27.882Z,1.00
2022-09-04T12:48:00.950Z,1.00
2022-09-04T12:50:46.636Z,1.08
2022-09-04T12:53:25.683Z,0.90
2022-09-04T12:55:53.215Z,0.90
2022-09-04T12:58:31.259Z,1.13
2022-09-04T13:01:08.486Z,0.95
2022-09-04T13:03:47.881Z,1.10
2022-09-04T13:06:18.133Z,0.90
2022-09-04T13:08:45.336Z,0.82
2022-09-04T13:11:19.759Z,0.93
2022-09-04T13:13:54.184Z,1.25
2022-09-04T13:16:37.580Z,0.98
2022-09-04T13:19:30.154Z,1.13
2022-09-04T13:22:00.281Z,1.10
2022-09-04T13:24:44.416Z,0.90
2022-09-04T13:27:26.843Z,0.93
2022-09-04T13:30:03.554Z,1.10
2022-09-04T13:32:49.273Z,1.30
2022-09-04T13:35:22.334Z,0.82
2022-09-04T13:37:52.857Z,0.90
2022-09-04T13:40:33.011Z,1.40
2022-09-04T13:43:12.426Z,1.30
2022-09-04T13:45:42.277Z,1.10
2022-09-04T13:48:14.061Z,1.10
2022-09-04T13:50:44.788Z,1.03
2022-09-04T13:53:18.792Z,1.23
2022-09-04T13:56:06.310Z,0.90
2022-09-04T13:58:39.224Z,0.90
2022-09-04T14:01:13.452Z,1.02
2022-09-04T14:03:45.099Z,1.05
2022-09-04T14:06:14.924Z,1.00
2022-09-04T14:08:43.202Z,0.90
2022-09-04T14:11:26.079Z,0.93
2022-09-04T14:14:21.146Z,0.90
2022-09-04T14:16:50.181Z,0.90
2022-09-04T14:19:17.390Z,0.95
2022-09-04T14:21:50.811Z,0.95
2022-09-04T14:24:18.221Z,1.30
2022-09-04T14:26:51.119Z,1.13
2022-09-04T14:29:25.755Z,0.80
2022-09-04T14:32:02.751Z,1.00
2022-09-04T14:34:50.164Z,0.88
2022-09-04T14:37:42.601Z,0.80
2022-09-04T14:40:13.792Z,0.88
2022-09-04T14:42:58.066Z,0.90
2022-09-04T14:45:31.179Z,0.80
2022-09-04T14:48:03.626Z,0.80
2022-09-04T14:50:34.160Z,1.00
2022-09-04T14:53:03.824Z,1.13
2022-09-04T14:55:32.302Z,0.80
2022-09-04T14:58:06.351Z,0.73
2022-09-04T15:00:34.872Z,0.80
2022-09-04T15:03:23.585Z,0.85
2022-09-04T15:05:55.687Z,0.80
2022-09-04T15:08:34.694Z,1.00
2022-09-04T15:11:05.400Z,0.60
2022-09-04T15:13:49.002Z,0.90
2022-09-04T15:16:35.733Z,0.90
2022-09-04T15:19:22.092Z,1.00
2022-09-04T15:21:57.944Z,0.60
2022-09-04T15:24:28.623Z,0.77
2022-09-04T15:27:00.006Z,0.77
2022-09-04T15:29:27.254Z,0.70
2022-09-04T15:32:02.986Z,0.50
2022-09-04T15:34:31.252Z,0.88
2022-09-04T15:37:10.495Z,0.90
2022-09-04T15:39:45.768Z,0.65
2022-09-04T15:42:14.078Z,0.93
2022-09-04T15:44:47.095Z,0.75
2022-09-04T15:47:17.939Z,0.80
2022-09-04T15:49:51.170Z,0.85
2022-09-04T15:52:37.046Z,0.95
2022-09-04T15:55:10.357Z,0.75
2022-09-04T15:57:43.718Z,0.60
2022-09-04T16:00:12.635Z,0.60
2022-09-04T16:03:00.186Z,1.00
2022-09-04T16:05:45.370Z,0.80
2022-09-04T16:08:23.487Z,0.60
2022-09-04T16:11:02.788Z,0.90
2022-09-04T16:13:41.394Z,0.82
2022-09-04T16:16:31.490Z,0.60
2022-09-04T16:19:05.710Z,0.70
2022-09-04T16:21:40.608Z,0.90
2022-09-04T16:24:16.386Z,0.82
2022-09-04T16:26:46.446Z,0.82
2022-09-04T16:29:26.239Z,0.70
2022-09-04T16:31:54.781Z,0.75
2022-09-04T16:34:30.042Z,0.80
2022-09-04T16:37:08.537Z,0.80
2022-09-04T16:39:46.291Z,0.80
2022-09-04T16:42:13.575Z,1.05
2022-09-04T16:44:44.369Z,0.70
2022-09-04T16:47:11.605Z,0.95
2022-09-04T16:49:51.800Z,0.60
2022-09-04T16:52:26.796Z,0.60
2022-09-04T16:54:55.481Z,0.80
2022-09-04T16:57:34.104Z,0.70
2022-09-04T17:00:06.473Z,0.80
2022-09-04T17:02:52.747Z,0.80
2022-09-04T17:05:45.712Z,0.63
2022-09-04T17:08:18.805Z,0.70
2022-09-04T17:10:55.516Z,0.90
2022-09-04T17:13:43.590Z,0.80
2022-09-04T17:16:15.203Z,0.80
2022-09-04T17:18:49.700Z,0.68
2022-09-04T17:26:00.832Z,0.60
2022-09-04T17:29:11.309Z,0.90
2022-09-04T17:29:12.104Z,0.68
2022-09-04T17:30:25.801Z,0.70
2022-09-04T17:37:42.045Z,0.80
2022-09-04T17:40:37.803Z,1.17
2022-09-04T17:40:56.730Z,0.85
2022-09-04T17:42:15.689Z,0.85
2022-09-04T17:44:50.485Z,0.88
2022-09-04T17:47:27.376Z,0.80
2022-09-04T17:49:55.672Z,0.90
2022-09-04T17:52:28.783Z,0.80
2022-09-04T17:55:16.355Z,0.88
2022-09-04T17:57:43.750Z,0.80
2022-09-04T18:00:20.398Z,0.90
2022-09-04T18:03:13.910Z,0.65
2022-09-04T18:05:53.337Z,0.80
2022-09-04T18:08:21.274Z,0.80
2022-09-04T18:10:54.658Z,0.90
2022-09-04T18:13:36.400Z,0.90
2022-09-04T18:16:19.461Z,0.68
2022-09-04T18:18:50.253Z,0.88
2022-09-04T18:21:22.978Z,0.90
2022-09-04T18:23:51.867Z,0.75
2022-09-04T18:26:39.989Z,0.95
2022-09-04T18:31:41.608Z,0.77
2022-09-04T18:37:17.222Z,0.80
2022-09-04T18:37:21.163Z,0.85
2022-09-04T18:38:13.120Z,0.80
2022-09-04T18:44:56.747Z,0.98
2022-09-04T18:50:29.344Z,0.70
2022-09-04T18:50:50.179Z,0.93
2022-09-04T18:50:51.557Z,0.80
2022-09-04T18:52:16.996Z,1.05
2022-09-04T18:54:54.141Z,0.80
2022-09-04T18:57:28.334Z,1.10
2022-09-04T19:00:08.601Z,0.80
2022-09-04T19:02:53.363Z,0.80
2022-09-04T19:05:21.933Z,0.90
2022-09-04T19:07:54.066Z,1.05
2022-09-04T19:10:25.472Z,0.93
2022-09-04T19:12:53.803Z,0.80
2022-09-04T19:15:37.119Z,0.70
2022-09-04T19:18:08.133Z,0.82
2022-09-04T19:20:44.897Z,0.80
2022-09-04T19:23:16.023Z,0.98
2022-09-04T19:25:45.448Z,0.85
2022-09-04T19:28:35.255Z,0.85
2022-09-04T19:31:10.092Z,1.00
2022-09-04T19:34:06.841Z,0.70
2022-09-04T19:36:38.136Z,0.70
2022-09-04T19:45:55.528Z,0.77
2022-09-04T19:46:11.849Z,0.82
2022-09-04T19:46:12.819Z,0.80
2022-09-04T19:48:26.146Z,0.90
2022-09-04T19:53:23.099Z,0.80
2022-09-04T19:54:05.785Z,1.02
2022-09-04T19:57:32.091Z,1.17
2022-09-04T19:59:44.783Z,0.90
2022-09-04T20:02:21.867Z,0.80
2022-09-04T20:04:50.348Z,0.85
2022-09-04T20:07:29.894Z,0.80
2022-09-04T20:10:00.919Z,0.90
2022-09-04T20:12:50.623Z,1.13
2022-09-04T20:15:27.004Z,0.80
2022-09-04T20:18:11.731Z,0.80
2022-09-04T20:20:54.818Z,1.23
2022-09-04T20:23:51.928Z,0.80
2022-09-04T20:26:20.218Z,1.00
2022-09-04T20:28:59.783Z,0.70
2022-09-04T20:31:36.730Z,0.90
2022-09-04T20:34:10.417Z,0.75
2022-09-04T20:36:39.039Z,1.73
2022-09-04T20:39:06.305Z,0.70
2022-09-04T20:41:37.446Z,0.70
2022-09-04T20:44:23.404Z,1.10
2022-09-04T20:52:44.896Z,0.93
2022-09-04T20:52:50.480Z,0.82
2022-09-04T20:52:50.936Z,1.17
2022-09-04T20:55:31.882Z,1.10
2022-09-04T21:01:45.870Z,0.90
2022-09-04T21:03:17.246Z,0.82
2022-09-04T21:03:54.871Z,0.73
2022-09-04T21:06:32.242Z,0.77
2022-09-04T21:09:05.364Z,1.30
2022-09-04T21:11:42.037Z,1.30
2022-09-04T21:14:13.795Z,0.82
2022-09-04T21:16:41.144Z,1.20
2022-09-04T21:19:28.545Z,1.20
2022-09-04T21:21:56.549Z,1.23
2022-09-04T21:24:35.905Z,1.20
2022-09-04T21:27:15.203Z,1.17
2022-09-04T21:29:59.395Z,1.27
2022-09-04T21:32:26.624Z,1.70
2022-09-04T21:34:57.745Z,1.10
2022-09-04T21:37:29.182Z,1.20
2022-09-04T21:39:59.420Z,1.00
2022-09-04T21:42:46.922Z,1.20
2022-09-04T21:45:22.261Z,1.15
2022-09-04T21:47:52.638Z,1.50
2022-09-04T21:50:31.866Z,1.08
2022-09-04T21:53:17.655Z,1.40
2022-09-04T22:02:26.037Z,1.10
2022-09-04T22:02:41.127Z,1.48
2022-09-04T22:02:46.277Z,2.67
2022-09-04T22:05:18.441Z,1.40
2022-09-04T22:11:12.280Z,1.70
2022-09-04T22:13:46.653Z,1.27
2022-09-04T22:13:49.119Z,1.35
2022-09-04T22:16:36.425Z,1.95
2022-09-04T22:19:22.694Z,1.30
2022-09-04T22:21:52.979Z,1.90
2022-09-04T22:24:41.475Z,2.33
2022-09-04T22:27:08.745Z,1.58
2022-09-04T22:29:46.333Z,1.58
2022-09-04T22:32:24.011Z,1.88
2022-09-04T22:35:35.987Z,2.22
2022-09-04T22:38:12.674Z,2.60
2022-09-04T22:40:56.084Z,2.00
2022-09-04T22:43:24.923Z,1.55
2022-09-04T22:46:10.230Z,1.83
2022-09-04T22:48:57.739Z,1.67
2022-09-04T22:51:58.466Z,2.37
2022-09-04T22:54:46.694Z,1.63
2022-09-04T22:57:24.889Z,1.98
2022-09-04T22:59:57.889Z,1.85
2022-09-04T23:03:06.709Z,1.92
2022-09-04T23:05:30.351Z,1.30
2022-09-04T23:13:47.244Z,2.38
2022-09-04T23:13:48.525Z,1.63
2022-09-04T23:16:53.008Z,1.98
2022-09-04T23:25:16.611Z,1.50
2022-09-04T23:26:46.040Z,2.08
2022-09-04T23:26:58.086Z,1.70
2022-09-04T23:28:23.101Z,1.55
2022-09-04T23:31:07.003Z,1.73
2022-09-04T23:33:54.652Z,1.95
2022-09-04T23:36:28.297Z,1.85
2022-09-04T23:39:21.840Z,2.38
2022-09-04T23:41:52.937Z,1.60
2022-09-04T23:44:26.764Z,1.77
2022-09-04T23:46:59.857Z,1.80
2022-09-04T23:49:27.104Z,2.00
2022-09-04T23:51:57.443Z,2.10
2022-09-04T23:54:36.633Z,2.30
2022-09-04T23:57:21.479Z,2.20
